Time;durP1;ratioP1;P1;durP2;ratioP2;P2;SDS_P1;SDS_P2;PMS_P1;PMS_P2;Temp;Humidity;BMP_temperature;BMP_pressure;BME280_temperature;BME280_humidity;BME280_pressure;Samples;Min_cycle;Max_cycle;Signal;HPM_P1;HPM_P2
2023/08/20 00:02:01;;;;;;;11.45;3.42;;;;;;;19.12;100.00;102057.41;5279117;28;20012;-71
2023/08/20 00:04:35;;;;;;;11.07;3.50;;;;;;;19.19;100.00;102048.50;5283008;28;20046;-71
2023/08/20 00:07:07;;;;;;;9.23;3.75;;;;;;;19.25;100.00;102048.56;5275406;28;20024;-71
2023/08/20 00:09:38;;;;;;;12.60;3.13;;;;;;;19.30;100.00;102045.25;5278639;28;20038;-71
2023/08/20 00:12:08;;;;;;;11.43;3.40;;;;;;;19.35;100.00;102051.78;5272461;28;20023;-71
2023/08/20 00:15:04;;;;;;;10.88;3.40;;;;;;;19.37;100.00;102054.31;5276823;28;20034;-71
2023/08/20 00:17:37;;;;;;;13.65;2.78;;;;;;;19.33;100.00;102056.59;5282309;28;20103;-71
2023/08/20 00:20:12;;;;;;;14.05;3.25;;;;;;;19.32;100.00;102067.66;5272900;28;20036;-71
2023/08/20 00:22:45;;;;;;;12.27;3.67;;;;;;;19.30;100.00;102072.47;5260426;28;20023;-72
2023/08/20 00:25:17;;;;;;;18.42;3.72;;;;;;;19.30;100.00;102073.28;5279548;28;21121;-72
2023/08/20 00:27:47;;;;;;;9.45;2.85;;;;;;;19.34;100.00;102082.75;5283246;28;20031;-71
2023/08/20 00:30:18;;;;;;;13.38;3.63;;;;;;;19.43;100.00;102078.03;5280949;28;20036;-71
2023/08/20 00:32:48;;;;;;;11.80;3.08;;;;;;;19.50;100.00;102083.53;5268641;28;20013;-71
2023/08/20 00:35:19;;;;;;;11.35;2.70;;;;;;;19.54;100.00;102096.56;5255700;28;20537;-71
2023/08/20 00:37:50;;;;;;;15.00;3.90;;;;;;;19.63;100.00;102102.75;5275442;28;20019;-71
2023/08/20 00:40:21;;;;;;;9.82;3.08;;;;;;;19.66;100.00;102115.94;5274162;28;20110;-71
2023/08/20 00:42:51;;;;;;;12.75;3.47;;;;;;;19.73;100.00;102116.00;5268041;28;20119;-72
2023/08/20 00:45:22;;;;;;;19.05;3.75;;;;;;;19.74;100.00;102113.09;5273626;28;20196;-72
2023/08/20 00:47:53;;;;;;;12.48;3.13;;;;;;;19.73;100.00;102110.56;5269413;28;20057;-71
2023/08/20 00:50:24;;;;;;;8.90;2.70;;;;;;;19.72;100.00;102104.28;5270732;28;20032;-71
2023/08/20 00:52:54;;;;;;;14.52;4.40;;;;;;;19.72;100.00;102108.88;5270488;28;20140;-71
2023/08/20 00:55:25;;;;;;;13.57;3.22;;;;;;;19.69;100.00;102103.84;5269718;28;20050;-71
2023/08/20 00:57:56;;;;;;;7.00;2.85;;;;;;;19.67;100.00;102104.84;5275554;28;20026;-71
2023/08/20 01:00:26;;;;;;;6.50;2.92;;;;;;;19.67;100.00;102101.28;5279125;28;20489;-72
2023/08/20 01:02:57;;;;;;;15.00;3.83;;;;;;;19.71;100.00;102110.75;5287171;28;20024;-72
2023/08/20 01:05:33;;;;;;;12.98;3.45;;;;;;;19.71;100.00;102108.03;5272769;28;20028;-72
2023/08/20 01:08:37;;;;;;;12.38;3.20;;;;;;;19.72;100.00;102104.28;5265826;28;20020;-72
2023/08/20 01:11:17;;;;;;;19.20;3.78;;;;;;;19.75;100.00;102114.78;5289129;27;20034;-71
2023/08/20 01:14:15;;;;;;;13.63;3.55;;;;;;;19.78;100.00;102108.97;5282352;28;20020;-71
2023/08/20 01:16:46;;;;;;;13.38;3.75;;;;;;;19.77;100.00;102104.53;5267842;28;20028;-71
2023/08/20 01:19:19;;;;;;;10.88;3.80;;;;;;;19.77;100.00;102106.41;5278761;28;20096;-71
2023/08/20 01:22:18;;;;;;;7.97;3.10;;;;;;;19.76;100.00;102104.72;5289471;28;20027;-71
2023/08/20 01:25:25;;;;;;;12.85;3.50;;;;;;;19.74;100.00;102104.09;5278701;28;20031;-71
2023/08/20 01:28:31;;;;;;;10.82;3.20;;;;;;;19.70;100.00;102106.38;5280802;28;20055;-71
2023/08/20 01:31:03;;;;;;;9.30;3.15;;;;;;;19.69;100.00;102112.84;5276179;28;20019;-71
2023/08/20 01:33:34;;;;;;;14.50;3.80;;;;;;;19.72;100.00;102114.31;5267700;28;20154;-72
2023/08/20 01:36:09;;;;;;;8.80;3.15;;;;;;;19.74;100.00;102117.72;5270384;28;20051;-72
2023/08/20 01:38:40;;;;;;;12.90;3.15;;;;;;;19.78;100.00;102118.97;5273165;28;20016;-71
2023/08/20 01:41:10;;;;;;;14.23;3.92;;;;;;;19.79;100.00;102123.41;5255479;28;20050;-71
2023/08/20 01:43:41;;;;;;;9.68;2.83;;;;;;;19.78;100.00;102122.56;5271192;28;20028;-71
2023/08/20 01:46:12;;;;;;;12.80;3.47;;;;;;;19.75;100.00;102133.84;5269433;28;20465;-72
2023/08/20 01:48:43;;;;;;;8.32;2.83;;;;;;;19.74;100.00;102140.34;5275897;28;20024;-71
2023/08/20 01:51:15;;;;;;;12.68;2.97;;;;;;;19.75;100.00;102131.13;5275254;28;20026;-71
2023/08/20 01:53:45;;;;;;;7.35;2.80;;;;;;;19.76;100.00;102140.97;5275897;28;20032;-71
2023/08/20 01:56:16;;;;;;;14.10;3.42;;;;;;;19.78;100.00;102129.88;5281351;28;20081;-71
2023/08/20 01:58:47;;;;;;;17.23;3.30;;;;;;;19.79;100.00;102140.59;5253085;28;20462;-71
2023/08/20 02:01:17;;;;;;;8.50;3.40;;;;;;;19.81;100.00;102134.94;5280766;28;20024;-70
2023/08/20 02:03:48;;;;;;;9.77;3.35;;;;;;;19.79;100.00;102143.31;5272757;28;20020;-71
2023/08/20 02:06:19;;;;;;;7.25;3.70;;;;;;;19.80;100.00;102138.69;5282488;28;20024;-70
2023/08/20 02:08:50;;;;;;;11.90;3.15;;;;;;;19.76;100.00;102132.78;5273596;28;20016;-70
2023/08/20 02:11:21;;;;;;;12.93;4.13;;;;;;;19.72;100.00;102147.84;5267529;28;20024;-70
2023/08/20 02:13:52;;;;;;;9.15;3.10;;;;;;;19.70;100.00;102151.81;5282744;28;20505;-71
2023/08/20 02:16:22;;;;;;;9.00;3.45;;;;;;;19.66;100.00;102149.47;5274946;28;20115;-70
2023/08/20 02:18:53;;;;;;;13.25;3.50;;;;;;;19.63;100.00;102146.31;5280032;28;20454;-71
2023/08/20 02:21:23;;;;;;;14.18;4.40;;;;;;;19.59;100.00;102154.00;5280521;28;20031;-70
2023/08/20 02:23:54;;;;;;;17.85;4.00;;;;;;;19.52;100.00;102147.59;5282465;28;20107;-71
2023/08/20 02:26:24;;;;;;;11.82;3.75;;;;;;;19.48;100.00;102146.34;5274636;28;20027;-70
2023/08/20 02:28:55;;;;;;;18.73;4.13;;;;;;;19.42;100.00;102138.91;5270165;28;20024;-70
2023/08/20 02:31:27;;;;;;;12.93;3.78;;;;;;;19.37;100.00;102139.50;5272599;28;20016;-70
2023/08/20 02:33:58;;;;;;;14.55;3.33;;;;;;;19.34;100.00;102136.34;5267140;28;20402;-71
2023/08/20 02:36:28;;;;;;;11.13;3.50;;;;;;;19.28;100.00;102137.97;5285286;28;20016;-71
2023/08/20 02:38:59;;;;;;;9.30;4.07;;;;;;;19.16;100.00;102136.75;5279608;28;20028;-70
2023/08/20 02:41:29;;;;;;;15.68;4.10;;;;;;;19.06;100.00;102130.78;5269741;28;20020;-71
2023/08/20 02:44:00;;;;;;;10.43;3.88;;;;;;;18.87;100.00;102130.34;5284972;28;20016;-71
2023/08/20 02:46:30;;;;;;;8.38;3.15;;;;;;;18.74;100.00;102130.19;5280733;28;20028;-70
2023/08/20 02:49:01;;;;;;;16.35;4.00;;;;;;;18.62;100.00;102132.53;5267667;28;20024;-70
2023/08/20 02:51:31;;;;;;;10.63;3.58;;;;;;;18.54;100.00;102129.03;5269392;28;20016;-71
2023/08/20 02:54:02;;;;;;;11.02;3.65;;;;;;;18.48;100.00;102138.78;5268820;28;20016;-70
2023/08/20 02:56:33;;;;;;;10.77;3.38;;;;;;;18.42;100.00;102136.81;5267934;28;20024;-70
2023/08/20 02:59:03;;;;;;;8.35;3.92;;;;;;;18.36;100.00;102132.97;5269914;28;20139;-70
2023/08/20 03:01:34;;;;;;;11.32;3.58;;;;;;;18.29;100.00;102129.31;5251624;28;20474;-70
2023/08/20 03:04:05;;;;;;;11.15;4.22;;;;;;;18.26;100.00;102134.25;5266924;28;20468;-70
2023/08/20 03:06:36;;;;;;;7.78;3.42;;;;;;;18.20;100.00;102141.28;5267036;28;20141;-70
2023/08/20 03:09:06;;;;;;;13.52;3.83;;;;;;;18.13;100.00;102136.78;5282432;28;20020;-70
2023/08/20 03:11:37;;;;;;;17.08;3.75;;;;;;;18.06;100.00;102145.66;5274169;28;20115;-71
2023/08/20 03:14:07;;;;;;;9.13;3.38;;;;;;;18.00;100.00;102134.69;5277665;28;20570;-70
2023/08/20 03:16:38;;;;;;;12.10;3.65;;;;;;;17.92;100.00;102135.59;5281207;28;20024;-70
2023/08/20 03:19:08;;;;;;;15.43;3.95;;;;;;;17.89;100.00;102135.16;5273165;28;20024;-71
2023/08/20 03:21:39;;;;;;;12.95;3.60;;;;;;;17.82;100.00;102130.47;5265649;28;20020;-71
2023/08/20 03:24:10;;;;;;;10.25;3.10;;;;;;;17.78;100.00;102126.41;5255396;28;20668;-70
2023/08/20 03:26:41;;;;;;;8.43;3.28;;;;;;;17.74;100.00;102130.50;5271888;28;20042;-71
2023/08/20 03:29:11;;;;;;;6.68;3.03;;;;;;;17.68;100.00;102128.50;5274204;28;20028;-71
2023/08/20 03:31:42;;;;;;;8.25;3.42;;;;;;;17.60;100.00;102133.97;5278686;28;20115;-71
2023/08/20 03:34:12;;;;;;;7.70;3.05;;;;;;;17.55;100.00;102136.41;5271492;28;20031;-71
2023/08/20 03:36:43;;;;;;;7.60;3.13;;;;;;;17.47;100.00;102145.47;5272360;28;20075;-70
2023/08/20 03:39:13;;;;;;;7.88;3.47;;;;;;;17.38;100.00;102141.09;5274107;28;20027;-71
2023/08/20 03:41:44;;;;;;;9.10;2.65;;;;;;;17.32;100.00;102141.81;5267755;28;20020;-70
2023/08/20 03:44:15;;;;;;;14.63;3.80;;;;;;;17.25;100.00;102135.41;5266639;28;20027;-70
2023/08/20 03:46:45;;;;;;;77.63;4.00;;;;;;;17.20;100.00;102140.53;5275551;28;20016;-70
2023/08/20 03:49:16;;;;;;;9.57;2.28;;;;;;;17.09;100.00;102145.34;5267635;28;20102;-71
2023/08/20 03:51:46;;;;;;;20.33;3.70;;;;;;;17.05;100.00;102148.56;5268949;28;20047;-71
2023/08/20 03:54:17;;;;;;;4.38;2.40;;;;;;;17.02;100.00;102149.78;5276227;28;20473;-70
2023/08/20 03:56:47;;;;;;;7.55;2.90;;;;;;;17.00;100.00;102148.25;5283669;28;20503;-70
2023/08/20 03:59:18;;;;;;;5.45;2.58;;;;;;;16.99;100.00;102150.13;5268030;28;20032;-70
2023/08/20 04:01:49;;;;;;;7.57;2.42;;;;;;;17.02;100.00;102154.38;5264509;28;20032;-70
2023/08/20 04:04:20;;;;;;;7.10;2.35;;;;;;;17.06;100.00;102153.81;5275263;28;20024;-70
2023/08/20 04:06:51;;;;;;;8.30;3.30;;;;;;;17.13;100.00;102148.53;5271247;28;20377;-70
2023/08/20 04:09:21;;;;;;;4.07;2.30;;;;;;;17.20;100.00;102151.38;5276618;28;20092;-71
2023/08/20 04:11:52;;;;;;;6.38;2.00;;;;;;;17.24;100.00;102156.28;5267854;28;20027;-71
2023/08/20 04:14:22;;;;;;;4.82;2.13;;;;;;;17.33;100.00;102167.94;5264379;28;20028;-71
2023/08/20 04:16:53;;;;;;;7.72;3.47;;;;;;;17.40;100.00;102168.03;5275980;28;20058;-71
2023/08/20 04:19:23;;;;;;;5.05;2.50;;;;;;;17.42;100.00;102169.56;5270119;28;20121;-70
2023/08/20 04:21:54;;;;;;;7.47;2.58;;;;;;;17.39;100.00;102169.91;5278577;28;20028;-71
2023/08/20 04:24:24;;;;;;;9.10;2.70;;;;;;;17.35;100.00;102174.00;5272924;28;20063;-71
2023/08/20 04:26:55;;;;;;;4.40;2.08;;;;;;;17.34;100.00;102167.72;5282317;28;20024;-70
2023/08/20 04:29:27;;;;;;;10.20;2.45;;;;;;;17.28;100.00;102173.88;5280347;28;20011;-70
2023/08/20 04:31:57;;;;;;;6.18;3.20;;;;;;;17.26;100.00;102164.22;5272613;28;20024;-70
2023/08/20 04:34:28;;;;;;;4.90;2.03;;;;;;;17.21;100.00;102174.75;5273208;28;20027;-70
2023/08/20 04:36:58;;;;;;;6.88;2.88;;;;;;;17.21;100.00;102172.03;5270808;28;20393;-70
2023/08/20 04:39:29;;;;;;;9.43;2.75;;;;;;;17.22;100.00;102174.59;5275465;28;20028;-71
2023/08/20 04:42:00;;;;;;;10.25;3.28;;;;;;;17.18;100.00;102180.56;5280009;28;20024;-71
2023/08/20 04:44:30;;;;;;;8.43;3.40;;;;;;;17.14;100.00;102182.75;5286753;28;20541;-72
2023/08/20 04:47:01;;;;;;;7.05;3.17;;;;;;;17.09;100.00;102171.59;5264364;28;20035;-71
2023/08/20 04:49:31;;;;;;;7.35;3.25;;;;;;;17.03;100.00;102185.88;5270561;28;20026;-71
2023/08/20 04:52:02;;;;;;;6.25;1.88;;;;;;;16.97;100.00;102186.59;5274034;28;20356;-72
2023/08/20 04:54:32;;;;;;;3.83;1.95;;;;;;;16.92;100.00;102194.38;5270575;28;20024;-72
2023/08/20 04:57:03;;;;;;;7.32;2.60;;;;;;;16.89;100.00;102192.88;5270081;28;20035;-71
2023/08/20 04:59:33;;;;;;;10.88;3.65;;;;;;;16.88;100.00;102190.34;5271371;28;20028;-72
2023/08/20 05:02:04;;;;;;;8.18;3.30;;;;;;;16.89;100.00;102190.16;5271538;28;20626;-71
2023/08/20 05:04:34;;;;;;;9.30;3.50;;;;;;;16.93;100.00;102185.25;5275576;28;20035;-71
2023/08/20 05:07:05;;;;;;;9.18;3.33;;;;;;;16.94;100.00;102186.94;5267597;28;20426;-72
2023/08/20 05:09:36;;;;;;;7.32;2.50;;;;;;;16.97;100.00;102192.84;5267746;28;20028;-71
2023/08/20 05:12:07;;;;;;;3.92;2.35;;;;;;;16.99;100.00;102193.50;5264226;28;20163;-72
2023/08/20 05:14:38;;;;;;;6.38;2.80;;;;;;;16.96;100.00;102193.84;5273433;28;20063;-71
2023/08/20 05:17:08;;;;;;;11.32;3.50;;;;;;;16.96;100.00;102191.13;5265426;28;20483;-71
2023/08/20 05:19:38;;;;;;;12.20;2.97;;;;;;;17.00;100.00;102195.19;5270524;28;20072;-71
2023/08/20 05:22:10;;;;;;;12.52;3.72;;;;;;;17.11;100.00;102193.09;5267908;28;20024;-72
2023/08/20 05:24:41;;;;;;;10.77;3.13;;;;;;;17.15;100.00;102192.59;5269393;28;20028;-72
2023/08/20 05:27:14;;;;;;;10.77;3.60;;;;;;;17.21;100.00;102193.75;5264899;28;20500;-71
2023/08/20 05:29:45;;;;;;;14.30;3.55;;;;;;;17.24;100.00;102194.25;5271799;28;20031;-71
2023/08/20 05:32:16;;;;;;;6.53;2.75;;;;;;;17.26;100.00;102188.63;5279518;28;20023;-71
2023/08/20 05:34:46;;;;;;;15.13;2.08;;;;;;;17.23;100.00;102179.00;5263368;28;20105;-71
2023/08/20 05:37:17;;;;;;;4.18;1.80;;;;;;;17.24;100.00;102188.81;5270422;28;20096;-71
2023/08/20 05:39:47;;;;;;;4.05;1.98;;;;;;;17.23;100.00;102184.41;5269722;28;20393;-71
2023/08/20 05:42:18;;;;;;;7.10;2.58;;;;;;;17.32;100.00;102196.91;5276040;28;20024;-71
2023/08/20 05:44:48;;;;;;;13.35;4.63;;;;;;;17.41;100.00;102194.13;5278688;28;20066;-71
2023/08/20 05:47:19;;;;;;;7.05;4.00;;;;;;;17.52;100.00;102196.44;5277521;28;20023;-72
2023/08/20 05:49:49;;;;;;;8.02;4.32;;;;;;;17.61;100.00;102198.91;5275211;28;20032;-72
2023/08/20 05:52:20;;;;;;;10.98;5.55;;;;;;;17.75;100.00;102197.34;5278180;28;20098;-71
2023/08/20 05:54:50;;;;;;;14.50;5.50;;;;;;;17.90;100.00;102193.84;5280406;28;20427;-71
2023/08/20 05:57:21;;;;;;;11.05;4.80;;;;;;;18.31;100.00;102192.44;5271588;28;20032;-72
2023/08/20 05:59:51;;;;;;;15.05;5.63;;;;;;;19.10;100.00;102200.94;5280357;28;20763;-72
2023/08/20 06:02:21;;;;;;;12.02;4.50;;;;;;;19.90;100.00;102207.28;5273217;28;20024;-72
2023/08/20 06:04:52;;;;;;;11.63;4.32;;;;;;;20.62;100.00;102192.59;5272445;28;20271;-72
2023/08/20 06:07:22;;;;;;;9.07;4.03;;;;;;;21.30;100.00;102201.78;5272623;28;20028;-72
2023/08/20 06:09:53;;;;;;;9.15;3.28;;;;;;;21.99;100.00;102195.19;5273874;28;20024;-72
2023/08/20 06:12:24;;;;;;;13.70;4.18;;;;;;;22.57;100.00;102192.66;5266292;28;20465;-72
2023/08/20 06:14:54;;;;;;;14.07;3.92;;;;;;;23.07;100.00;102194.84;5268093;28;20474;-72
2023/08/20 06:17:25;;;;;;;10.90;4.10;;;;;;;23.30;100.00;102197.91;5284407;28;20030;-72
2023/08/20 06:19:55;;;;;;;7.75;3.08;;;;;;;23.57;100.00;102192.28;5284779;28;20031;-72
2023/08/20 06:22:26;;;;;;;9.57;3.05;;;;;;;23.24;100.00;102198.75;5286134;28;20027;-73
2023/08/20 06:24:57;;;;;;;11.23;3.72;;;;;;;23.27;100.00;102199.16;5284254;28;20115;-73
2023/08/20 06:27:28;;;;;;;9.23;3.55;;;;;;;23.61;100.00;102212.69;5284761;28;20031;-72
2023/08/20 06:29:59;;;;;;;13.73;3.97;;;;;;;23.96;100.00;102205.75;5284460;28;20642;-72
2023/08/20 06:32:30;;;;;;;10.63;3.20;;;;;;;24.29;100.00;102191.72;5286099;28;20080;-73
2023/08/20 06:35:00;;;;;;;11.98;3.65;;;;;;;24.62;100.00;102195.25;5274299;28;20032;-73
2023/08/20 06:37:31;;;;;;;10.48;3.15;;;;;;;24.88;100.00;102194.97;5274137;28;20047;-73
2023/08/20 06:40:01;;;;;;;7.13;2.88;;;;;;;25.12;100.00;102189.66;5267437;28;20372;-73
2023/08/20 06:42:32;;;;;;;12.32;2.90;;;;;;;25.64;100.00;102199.03;5267230;28;20028;-72
2023/08/20 06:45:02;;;;;;;11.18;3.42;;;;;;;25.80;100.00;102198.44;5268684;28;20075;-73
2023/08/20 06:47:33;;;;;;;12.43;3.50;;;;;;;25.88;100.00;102202.72;5277733;28;20104;-73
2023/08/20 06:50:04;;;;;;;9.38;2.90;;;;;;;26.23;100.00;102205.53;5267037;28;20465;-73
2023/08/20 06:52:35;;;;;;;15.68;3.08;;;;;;;26.45;100.00;102194.78;5266453;28;20016;-73
2023/08/20 06:55:05;;;;;;;14.95;3.35;;;;;;;26.40;100.00;102202.91;5266846;28;20030;-73
2023/08/20 06:57:36;;;;;;;13.82;2.80;;;;;;;26.40;100.00;102205.66;5267266;28;20493;-73
2023/08/20 07:00:07;;;;;;;13.82;2.50;;;;;;;26.88;100.00;102201.81;5267268;28;20032;-73
2023/08/20 07:02:37;;;;;;;13.80;2.88;;;;;;;26.72;100.00;102199.81;5280352;28;20059;-73
2023/08/20 07:05:09;;;;;;;13.50;3.03;;;;;;;26.85;100.00;102205.88;5278209;28;20088;-73
2023/08/20 07:07:39;;;;;;;6.65;2.67;;;;;;;27.57;100.00;102213.72;5270317;28;20023;-73
2023/08/20 07:10:10;;;;;;;7.97;2.40;;;;;;;27.79;100.00;102207.50;5280208;28;20077;-73
2023/08/20 07:12:40;;;;;;;8.75;2.70;;;;;;;28.18;100.00;102199.34;5284421;28;20026;-73
2023/08/20 07:15:11;;;;;;;9.68;2.13;;;;;;;28.13;100.00;102206.44;5283109;28;20027;-73
2023/08/20 07:17:41;;;;;;;12.00;2.47;;;;;;;27.64;100.00;102213.53;5266577;28;20031;-73
2023/08/20 07:20:13;;;;;;;10.75;2.42;;;;;;;27.30;100.00;102212.63;5268308;28;20036;-73
2023/08/20 07:22:43;;;;;;;7.93;2.15;;;;;;;27.83;100.00;102211.44;5267947;28;20389;-73
2023/08/20 07:25:14;;;;;;;11.80;2.80;;;;;;;27.47;100.00;102210.75;5270707;28;20028;-73
2023/08/20 07:27:44;;;;;;;10.15;2.60;;;;;;;27.39;100.00;102213.91;5267309;28;20042;-73
2023/08/20 07:30:15;;;;;;;9.50;2.63;;;;;;;27.62;100.00;102211.06;5273242;28;20101;-73
2023/08/20 07:32:45;;;;;;;8.98;2.53;;;;;;;27.71;100.00;102217.00;5269719;28;20027;-73
2023/08/20 07:35:16;;;;;;;8.45;2.40;;;;;;;27.81;100.00;102219.13;5271168;28;20497;-73
2023/08/20 07:37:47;;;;;;;8.73;1.95;;;;;;;28.11;100.00;102222.41;5267580;28;20042;-73
2023/08/20 07:40:17;;;;;;;5.68;1.65;;;;;;;28.26;100.00;102224.56;5272486;28;20023;-73
2023/08/20 07:42:50;;;;;;;8.15;2.05;;;;;;;28.20;100.00;102225.56;5274540;28;20043;-73
2023/08/20 07:45:20;;;;;;;9.27;2.28;;;;;;;28.27;100.00;102222.66;5276404;28;20027;-74
2023/08/20 07:47:50;;;;;;;10.43;2.63;;;;;;;28.48;100.00;102223.84;5271426;28;20034;-73
2023/08/20 07:50:21;;;;;;;7.18;1.90;;;;;;;28.30;100.00;102222.97;5272982;28;20024;-73
2023/08/20 07:52:51;;;;;;;9.80;2.00;;;;;;;28.20;100.00;102222.00;5278260;28;20389;-73
2023/08/20 07:55:22;;;;;;;11.18;2.28;;;;;;;28.36;100.00;102221.16;5274059;28;20511;-73
2023/08/20 07:57:52;;;;;;;11.10;2.00;;;;;;;29.13;100.00;102223.94;5277942;28;20027;-74
2023/08/20 08:00:23;;;;;;;6.15;2.08;;;;;;;29.89;100.00;102235.00;5273097;28;20019;-74
2023/08/20 08:02:53;;;;;;;9.57;3.03;;;;;;;29.60;100.00;102225.31;5278956;28;20027;-74
2023/08/20 08:05:24;;;;;;;9.90;2.25;;;;;;;29.03;100.00;102222.97;5254746;28;20107;-73
2023/08/20 08:07:55;;;;;;;8.70;2.15;;;;;;;28.96;100.00;102227.84;5277586;28;20027;-74
2023/08/20 08:10:25;;;;;;;7.53;1.70;;;;;;;29.61;100.00;102226.97;5272055;28;20489;-73
2023/08/20 08:12:56;;;;;;;7.47;2.08;;;;;;;29.75;100.00;102236.53;5273922;28;20023;-74
2023/08/20 08:15:26;;;;;;;6.53;1.67;;;;;;;29.37;100.00;102227.28;5268496;28;20032;-74
2023/08/20 08:17:57;;;;;;;9.85;1.60;;;;;;;29.56;100.00;102236.06;5269106;28;20042;-74
2023/08/20 08:20:27;;;;;;;6.93;2.15;;;;;;;29.34;100.00;102233.31;5270498;28;20040;-74
2023/08/20 08:22:58;;;;;;;7.22;1.80;;;;;;;30.17;100.00;102242.22;5269429;28;20111;-74
2023/08/20 08:25:28;;;;;;;5.47;1.50;;;;;;;29.88;100.00;102232.50;5270622;28;20020;-74
2023/08/20 08:27:59;;;;;;;5.57;1.63;;;;;;;29.99;100.00;102227.91;5267507;28;20035;-74
2023/08/20 08:30:29;;;;;;;4.28;1.70;;;;;;;30.63;100.00;102239.78;5272847;28;20046;-74
2023/08/20 08:33:00;;;;;;;4.50;1.52;;;;;;;30.12;100.00;102242.19;5267832;28;20032;-73
2023/08/20 08:35:30;;;;;;;4.32;1.48;;;;;;;30.70;100.00;102242.31;5253074;28;20034;-74
2023/08/20 08:38:02;;;;;;;8.45;1.60;;;;;;;30.23;100.00;102239.50;5266621;28;20028;-74
2023/08/20 08:40:33;;;;;;;4.05;1.23;;;;;;;29.92;100.00;102239.16;5274900;28;20024;-73
2023/08/20 08:43:04;;;;;;;6.20;1.83;;;;;;;29.76;100.00;102240.97;5269843;28;20070;-74
2023/08/20 08:45:35;;;;;;;8.05;1.92;;;;;;;29.60;100.00;102239.16;5277618;28;20106;-74
2023/08/20 08:48:06;;;;;;;10.00;1.58;;;;;;;30.04;100.00;102245.38;5252584;28;20396;-74
2023/08/20 08:50:36;;;;;;;9.27;1.65;;;;;;;30.17;100.00;102242.22;5272354;28;20027;-74
2023/08/20 08:53:08;;;;;;;3.30;1.25;;;;;;;30.31;100.00;102237.03;5272418;28;20024;-74
2023/08/20 08:55:38;;;;;;;5.10;1.90;;;;;;;30.05;100.00;102232.38;5270068;28;20465;-74
2023/08/20 08:58:09;;;;;;;5.78;1.92;;;;;;;30.25;100.00;102238.09;5273666;28;20023;-74
2023/08/20 09:00:40;;;;;;;3.40;1.30;;;;;;;30.75;100.00;102244.28;5269050;28;20024;-74
2023/08/20 09:03:10;;;;;;;4.53;1.02;;;;;;;31.00;100.00;102236.09;5282151;28;20016;-74
2023/08/20 09:06:00;;;;;;;4.43;0.90;;;;;;;31.28;100.00;102239.56;5267352;28;20024;-74
2023/08/20 09:08:32;;;;;;;9.52;1.70;;;;;;;30.87;100.00;102239.34;5276665;28;20027;-74
2023/08/20 09:11:02;;;;;;;3.35;0.88;;;;;;;30.89;100.00;102239.94;5264221;28;20505;-74
2023/08/20 09:13:35;;;;;;;4.82;1.42;;;;;;;31.08;100.00;102243.91;5273184;28;20016;-74
2023/08/20 09:16:08;;;;;;;4.32;1.25;;;;;;;31.16;100.00;102242.53;5274427;28;20027;-74
2023/08/20 09:18:40;;;;;;;6.00;1.13;;;;;;;31.35;100.00;102242.94;5284234;28;20385;-74
2023/08/20 09:21:12;;;;;;;3.50;0.80;;;;;;;31.72;97.54;102251.88;5284885;28;20216;-74
2023/08/20 09:23:46;;;;;;;2.83;1.00;;;;;;;31.67;97.14;102256.59;5286271;28;20019;-74
2023/08/20 09:26:17;;;;;;;3.58;0.98;;;;;;;31.46;100.00;102245.44;5284289;28;20023;-74
2023/08/20 09:28:48;;;;;;;4.03;0.88;;;;;;;31.62;100.00;102245.47;5286485;28;20131;-74
2023/08/20 09:31:18;;;;;;;2.85;1.00;;;;;;;31.97;100.00;102248.31;5284799;28;20031;-74
2023/08/20 09:33:52;;;;;;;2.65;0.80;;;;;;;32.14;94.89;102248.06;5279380;28;20032;-74
2023/08/20 09:36:35;;;;;;;1.73;0.60;;;;;;;31.74;91.23;102253.56;5273162;28;20447;-74
2023/08/20 09:39:05;;;;;;;3.28;0.88;;;;;;;31.36;96.77;102241.81;5280893;28;20504;-74
2023/08/20 09:41:36;;;;;;;2.08;0.52;;;;;;;31.62;80.87;102248.25;5272254;28;20024;-74
2023/08/20 09:44:08;;;;;;;1.33;0.40;;;;;;;31.57;68.70;102257.38;5274197;28;20035;-74
2023/08/20 09:46:41;;;;;;;0.73;0.40;;;;;;;31.15;85.44;102252.81;5273505;28;20036;-73
2023/08/20 09:49:18;;;;;;;1.50;0.50;;;;;;;30.96;95.94;102251.59;5279251;28;20036;-73
2023/08/20 09:51:53;;;;;;;2.92;0.75;;;;;;;31.24;86.31;102250.34;5281906;28;20058;-73
2023/08/20 09:54:49;;;;;;;5.07;0.55;;;;;;;31.57;79.33;102253.78;5283613;28;20473;-73
2023/08/20 09:57:32;;;;;;;3.85;1.13;;;;;;;31.36;82.02;102250.97;5278263;28;20029;-73
2023/08/20 10:00:09;;;;;;;0.88;0.47;;;;;;;31.09;73.16;102244.75;5276983;28;20036;-73
2023/08/20 10:02:42;;;;;;;2.15;0.63;;;;;;;30.99;85.62;102259.38;5282171;28;20497;-73
2023/08/20 10:05:14;;;;;;;2.53;0.70;;;;;;;30.90;95.54;102244.38;5259309;28;20109;-73
2023/08/20 10:07:46;;;;;;;2.55;0.47;;;;;;;31.15;88.88;102244.47;5259971;28;20016;-73
2023/08/20 10:10:16;;;;;;;3.55;0.95;;;;;;;31.12;100.00;102245.00;5274581;28;20022;-73
2023/08/20 10:12:48;;;;;;;2.50;0.70;;;;;;;31.26;100.00;102244.53;5277359;28;20031;-73
2023/08/20 10:15:18;;;;;;;2.63;0.95;;;;;;;31.37;96.70;102249.03;5256845;28;20424;-73
2023/08/20 10:17:49;;;;;;;2.75;0.70;;;;;;;31.26;96.51;102255.59;5269215;28;20020;-73
2023/08/20 10:20:20;;;;;;;5.07;1.00;;;;;;;31.07;96.34;102245.00;5282622;28;20035;-73
2023/08/20 10:22:51;;;;;;;3.40;0.90;;;;;;;30.84;100.00;102253.75;5278493;28;20111;-73
2023/08/20 10:25:23;;;;;;;1.65;0.90;;;;;;;30.47;100.00;102249.06;5283116;28;20031;-73
2023/08/20 10:27:54;;;;;;;4.13;1.02;;;;;;;30.23;100.00;102239.50;5277690;28;20076;-73
2023/08/20 10:30:26;;;;;;;6.13;1.42;;;;;;;30.27;100.00;102238.66;5280814;28;20108;-73
2023/08/20 10:32:58;;;;;;;4.45;1.00;;;;;;;30.31;100.00;102239.81;5280544;28;20047;-73
2023/08/20 10:35:37;;;;;;;2.22;0.73;;;;;;;30.51;100.00;102241.88;5275448;28;20477;-73
2023/08/20 10:38:15;;;;;;;4.90;1.15;;;;;;;30.52;100.00;102242.72;5272934;28;20066;-73
2023/08/20 10:41:05;;;;;;;2.85;0.90;;;;;;;30.69;100.00;102240.63;5272414;28;20036;-73
2023/08/20 10:43:53;;;;;;;1.80;0.75;;;;;;;30.54;98.30;102235.81;5271274;28;20024;-73
2023/08/20 10:46:25;;;;;;;5.07;0.90;;;;;;;30.55;97.84;102226.41;5280329;28;20062;-73
2023/08/20 10:48:56;;;;;;;5.13;0.70;;;;;;;30.32;100.00;102226.81;5274118;28;20039;-73
2023/08/20 10:51:28;;;;;;;2.88;0.68;;;;;;;30.40;100.00;102218.84;5274326;28;20267;-73
2023/08/20 10:53:59;;;;;;;4.90;1.05;;;;;;;30.28;100.00;102220.97;5275008;28;20118;-73
2023/08/20 10:56:54;;;;;;;3.38;0.70;;;;;;;30.35;100.00;102221.56;5269187;28;20032;-74
2023/08/20 10:59:27;;;;;;;4.13;0.70;;;;;;;30.38;100.00;102218.28;5275164;28;20107;-73
2023/08/20 11:01:59;;;;;;;2.45;0.80;;;;;;;30.57;100.00;102204.81;5285956;28;20015;-73
2023/08/20 11:04:32;;;;;;;3.67;0.80;;;;;;;30.87;100.00;102200.56;5284704;28;20461;-73
2023/08/20 11:07:04;;;;;;;3.17;0.73;;;;;;;30.99;100.00;102205.91;5278175;28;20024;-73
2023/08/20 11:09:35;;;;;;;2.75;1.02;;;;;;;31.09;100.00;102209.53;5278322;28;20044;-73
2023/08/20 11:12:06;;;;;;;4.15;1.15;;;;;;;31.08;100.00;102210.66;5284701;28;20023;-73
2023/08/20 11:14:36;;;;;;;5.50;1.13;;;;;;;30.90;99.91;102205.59;5280622;28;20018;-73
2023/08/20 11:17:08;;;;;;;2.17;0.90;;;;;;;30.90;100.00;102205.59;5282836;28;20498;-73
2023/08/20 11:19:38;;;;;;;2.22;0.88;;;;;;;30.84;100.00;102192.81;5282152;27;20046;-73
2023/08/20 11:22:09;;;;;;;2.35;0.75;;;;;;;30.75;100.00;102192.50;5265773;28;20016;-73
2023/08/20 11:24:42;;;;;;;3.67;0.95;;;;;;;30.87;100.00;102197.78;5284009;27;20027;-73
2023/08/20 11:27:13;;;;;;;2.97;0.93;;;;;;;31.06;100.00;102196.22;5283178;27;20024;-74
2023/08/20 11:29:44;;;;;;;2.88;0.80;;;;;;;31.30;100.00;102198.56;5284288;28;20016;-73
2023/08/20 11:32:14;;;;;;;2.08;0.73;;;;;;;31.41;100.00;102191.91;5284469;28;20027;-73
2023/08/20 11:34:45;;;;;;;2.90;1.13;;;;;;;31.41;99.81;102189.13;5284415;28;20024;-73
2023/08/20 11:37:20;;;;;;;3.90;0.90;;;;;;;31.31;96.86;102194.66;5265116;28;20034;-73